Airfield :
LOGIN :

Register | Disclaimer

   EN    FR    IT 

 










Legend :    VFR   Marginal VFR   IFR   Intensive IFR   Very Intensive IFR
Visi :
Ceiling :
>= 8 km
>= 3000ft
5 to 8 km
1000 to 3000 ft
1500m to 5 km
500 to 1000 ft
800 to 1500m
200 to 500 ft
< 800m
< 200 ft
Symbols :   Thunderstorms  Fog  Heavy snow  Heavy precipitations  Wind > 20 kt
SIGMETs :     Misc.  Thunderstorms  Icing  Turbulence  Mountain Waves  Volcanic Ashes







- Airport Elevation : 62 ft
- IATA code : TAN


GMTT - Tanger Ibn Batouta

CURRENT METAR :
  • 222030Z 26004KT 9999 FEW016 21/16 Q1016 NOSIG

EXPIRED METARs :
  • 222000Z 28004KT 9999 FEW016 21/15 Q1016 NOSIG
  • 221930Z 29005KT 9999 FEW016 22/16 Q1016 NOSIG
  • 221900Z 28005KT 9999 FEW016 23/16 Q1015 NOSIG
  • 221830Z 29006KT 9999 FEW016 24/16 Q1015 NOSIG
  • 221800Z 31008KT 290V350 9999 FEW016 24/16 Q1015 NOSIG

TAF TAF GMTT
Valid from the 22 at 12:00 until the 23 at 18:00 UTC


221100Z 2212/2318 25012KT 8000 FEW016 SCT200
BECMG 2300/2302 19008KT 7000 SCT016
TEMPO 2308/2316 28016KT 9999 SCT020
No reported NOTAMs for that airfield.
2 SIGMETs reported for the Casablanca FIR (GMMM) :
 
Heavy dust storm
GMMM SIGMET S2 VALID 221740/222040 GMMC
GMMM CASABLANCA FIR HVY DS OBS E LINE N3011 W00555 - N3253 W00454 - N3452 W00324 MOV N WKN=
Embedded thunderstorms
GMMM SIGMET 01 VALID 221730/222130 GMMC
GMMM CASABLANCA FIR EMBD TS FCST WI N318 W00147 - N3232 W00524 - N3435 W00500 - N3452 W00208 TOP FL280 MOV NE NC=



MET'MAP, your aeronautical weather chart ! - Copyright ORBIFLY December 2007 - Disclaimer

ORBIFLY MET'MAP TEAM :

Programming & Development : Alexandra Zaïnal
Concept & Development : Baudouin d'Aumeries
Co-Development & Prog : Marc-Olivier Méhu
Technical & hardware support : Manuel Goepfert

Contact : metmap@orbifly.com




SOURCES & CREDITS :

   NOAA